createdAt,value
2017-10-16T00:00:42.051Z,21.62
2017-10-16T00:01:45.500Z,19.52
2017-10-16T00:02:49.255Z,20.75
2017-10-16T00:03:52.106Z,21.40
2017-10-16T00:04:55.368Z,21.23
2017-10-16T00:05:58.954Z,22.20
2017-10-16T00:07:01.461Z,22.42
2017-10-16T00:08:04.342Z,20.10
2017-10-16T00:09:06.845Z,23.38
2017-10-16T00:10:09.679Z,21.08
2017-10-16T00:11:12.183Z,22.20
2017-10-16T00:12:14.965Z,21.80
2017-10-16T00:13:17.476Z,22.08
2017-10-16T00:14:20.363Z,21.85
2017-10-16T00:15:22.897Z,20.00
2017-10-16T00:16:27.508Z,21.00
2017-10-16T00:17:30.083Z,24.50
2017-10-16T00:18:33.929Z,23.75
2017-10-16T00:19:36.439Z,20.80
2017-10-16T00:20:40.042Z,20.17
2017-10-16T00:21:43.463Z,22.62
2017-10-16T00:22:46.271Z,21.15
2017-10-16T00:23:48.783Z,22.02
2017-10-16T00:24:52.478Z,22.02
2017-10-16T00:25:54.968Z,23.20
2017-10-16T00:26:57.553Z,22.35
2017-10-16T00:28:00.047Z,21.80
2017-10-16T00:29:03.535Z,21.73
2017-10-16T00:30:06.833Z,21.23
2017-10-16T00:31:10.397Z,21.92
2017-10-16T00:32:13.012Z,21.50
2017-10-16T00:33:15.787Z,22.73
2017-10-16T00:34:18.352Z,22.40
2017-10-16T00:35:21.375Z,21.35
2017-10-16T00:36:23.902Z,20.10
2017-10-16T00:37:28.576Z,21.37
2017-10-16T00:38:31.925Z,23.17
2017-10-16T00:39:34.520Z,21.30
2017-10-16T00:40:37.056Z,22.73
2017-10-16T00:41:39.896Z,21.75
2017-10-16T00:42:42.426Z,21.85
2017-10-16T00:43:46.083Z,23.70
2017-10-16T00:44:48.571Z,22.37
2017-10-16T00:45:51.131Z,21.20
2017-10-16T00:46:53.618Z,22.40
2017-10-16T00:47:56.191Z,23.55
2017-10-16T00:48:59.479Z,25.30
2017-10-16T00:50:03.251Z,25.12
2017-10-16T00:51:05.873Z,23.60
2017-10-16T00:52:08.748Z,23.90
2017-10-16T00:53:11.315Z,25.00
2017-10-16T00:54:14.089Z,24.42
2017-10-16T00:55:16.653Z,24.50
2017-10-16T00:56:20.504Z,25.90
2017-10-16T00:57:23.016Z,24.12
2017-10-16T00:58:27.900Z,25.40
2017-10-16T00:59:31.239Z,23.55
2017-10-16T01:00:34.153Z,24.08
2017-10-16T01:01:37.432Z,23.58
2017-10-16T01:02:42.168Z,25.23
2017-10-16T01:03:45.439Z,28.20
2017-10-16T01:04:48.112Z,23.60
2017-10-16T01:05:51.430Z,26.40
2017-10-16T01:06:54.986Z,27.30
2017-10-16T01:07:57.490Z,26.62
2017-10-16T01:09:01.816Z,27.77
2017-10-16T01:10:04.419Z,24.60
2017-10-16T01:11:09.039Z,28.48
2017-10-16T01:12:11.556Z,25.65
2017-10-16T01:13:14.411Z,23.90
2017-10-16T01:14:17.706Z,23.45
2017-10-16T01:15:20.309Z,24.48
2017-10-16T01:16:22.851Z,24.52
2017-10-16T01:17:25.713Z,29.00
2017-10-16T01:18:28.239Z,26.08
2017-10-16T01:19:31.163Z,28.55
2017-10-16T01:20:33.719Z,28.83
2017-10-16T01:21:37.366Z,26.15
2017-10-16T01:22:39.927Z,27.30
2017-10-16T01:23:48.313Z,26.17
2017-10-16T01:24:51.096Z,27.35
2017-10-16T01:25:53.674Z,28.67
2017-10-16T01:26:56.452Z,26.80
2017-10-16T01:27:58.958Z,27.00
2017-10-16T01:29:01.835Z,26.15
2017-10-16T01:30:04.336Z,27.50
2017-10-16T01:31:07.135Z,25.80
2017-10-16T01:32:09.846Z,27.62
2017-10-16T01:33:12.463Z,28.85
2017-10-16T01:34:14.983Z,29.87
2017-10-16T01:35:17.807Z,30.70
2017-10-16T01:36:20.445Z,30.10
2017-10-16T01:37:23.281Z,28.12
2017-10-16T01:38:25.856Z,29.33
2017-10-16T01:39:28.504Z,28.60
2017-10-16T01:40:31.819Z,28.35
2017-10-16T01:41:34.462Z,30.52
2017-10-16T01:42:37.771Z,26.27
2017-10-16T01:43:40.630Z,29.95
2017-10-16T01:44:43.122Z,27.90
2017-10-16T01:45:45.873Z,28.17
2017-10-16T01:46:48.452Z,27.95
2017-10-16T01:47:51.121Z,26.60
2017-10-16T01:48:53.649Z,28.48
2017-10-16T01:49:57.012Z,28.40
2017-10-16T01:50:59.534Z,28.17
2017-10-16T01:52:02.410Z,30.80
2017-10-16T01:53:04.908Z,28.35
2017-10-16T01:54:07.739Z,28.67
2017-10-16T01:55:10.240Z,29.77
2017-10-16T01:56:13.139Z,30.50
2017-10-16T01:57:15.652Z,31.80
2017-10-16T01:58:18.434Z,29.75
2017-10-16T01:59:20.991Z,27.25
2017-10-16T02:00:30.766Z,27.65
2017-10-16T02:01:33.292Z,28.50
2017-10-16T02:02:36.272Z,31.15
2017-10-16T02:03:38.753Z,29.33
2017-10-16T02:04:41.446Z,23.40
2017-10-16T02:05:43.936Z,28.70
2017-10-16T02:06:46.662Z,27.25
2017-10-16T02:07:49.251Z,26.75
2017-10-16T02:08:51.851Z,28.23
2017-10-16T02:09:55.366Z,25.80
2017-10-16T02:10:58.104Z,25.37
2017-10-16T02:12:01.425Z,28.00
2017-10-16T02:13:04.053Z,29.45
2017-10-16T02:14:06.541Z,33.22
2017-10-16T02:15:10.001Z,28.95
2017-10-16T02:16:12.519Z,29.02
2017-10-16T02:17:15.489Z,27.55
2017-10-16T02:18:17.979Z,30.55
2017-10-16T02:19:20.992Z,30.23
2017-10-16T02:20:23.492Z,28.77
2017-10-16T02:21:26.882Z,28.65
2017-10-16T02:22:29.461Z,30.70
2017-10-16T02:23:32.279Z,28.52
2017-10-16T02:24:35.047Z,28.90
2017-10-16T02:25:37.539Z,25.92
2017-10-16T02:26:40.944Z,29.27
2017-10-16T02:27:43.468Z,32.05
2017-10-16T02:28:46.263Z,28.35
2017-10-16T02:29:49.770Z,27.23
2017-10-16T02:30:52.477Z,28.00
2017-10-16T02:31:55.010Z,27.08
2017-10-16T02:32:57.875Z,28.98
2017-10-16T02:34:00.360Z,28.35
2017-10-16T02:35:03.151Z,31.70
2017-10-16T02:36:05.652Z,32.38
2017-10-16T02:37:09.287Z,31.35
2017-10-16T02:38:11.880Z,32.22
2017-10-16T02:39:14.682Z,30.98
2017-10-16T02:40:18.040Z,27.95
2017-10-16T02:41:20.737Z,33.53
2017-10-16T02:42:23.490Z,32.13
2017-10-16T02:43:26.068Z,30.37
2017-10-16T02:44:28.555Z,30.17
2017-10-16T02:45:36.012Z,27.52
2017-10-16T02:46:38.507Z,32.00
2017-10-16T02:47:41.972Z,30.37
2017-10-16T02:48:44.487Z,29.37
2017-10-16T02:49:47.316Z,29.17
2017-10-16T02:50:50.431Z,28.08
2017-10-16T02:51:53.253Z,28.67
2017-10-16T02:52:55.767Z,27.75
2017-10-16T02:53:58.584Z,25.48
2017-10-16T02:55:01.090Z,29.02
2017-10-16T02:56:04.556Z,28.55
2017-10-16T02:57:07.046Z,29.42
2017-10-16T02:58:10.477Z,27.13
2017-10-16T02:59:12.975Z,27.55
2017-10-16T03:00:16.462Z,27.95
2017-10-16T03:01:19.065Z,27.95
2017-10-16T03:02:21.833Z,26.60
2017-10-16T03:03:24.372Z,27.40
2017-10-16T03:04:27.741Z,28.10
2017-10-16T03:05:30.248Z,30.73
2017-10-16T03:06:33.073Z,27.60
2017-10-16T03:07:35.570Z,26.92
2017-10-16T03:08:39.020Z,26.60
2017-10-16T03:09:41.521Z,24.25
2017-10-16T03:10:44.988Z,27.13
2017-10-16T03:11:47.603Z,22.48
2017-10-16T03:12:50.377Z,22.83
2017-10-16T03:13:52.883Z,25.48
2017-10-16T03:14:55.664Z,26.60
2017-10-16T03:15:58.164Z,23.55
2017-10-16T03:17:02.533Z,23.30
2017-10-16T03:18:05.056Z,21.85
2017-10-16T03:19:07.880Z,22.80
2017-10-16T03:20:10.888Z,21.50
2017-10-16T03:21:15.386Z,22.23
2017-10-16T03:22:17.879Z,23.25
2017-10-16T03:23:20.743Z,22.35
2017-10-16T03:24:23.487Z,24.00
2017-10-16T03:25:26.019Z,20.23
2017-10-16T03:26:29.000Z,21.42
2017-10-16T03:27:31.849Z,23.90
2017-10-16T03:28:34.804Z,20.20
2017-10-16T03:29:38.269Z,22.27
2017-10-16T03:30:40.886Z,22.65
2017-10-16T03:31:43.603Z,22.13
2017-10-16T03:32:46.120Z,23.90
2017-10-16T03:33:49.020Z,23.58
2017-10-16T03:34:51.623Z,21.87
2017-10-16T03:35:54.277Z,22.60
2017-10-16T03:36:56.828Z,23.60
2017-10-16T03:37:59.666Z,22.73
2017-10-16T03:39:02.188Z,22.50
2017-10-16T03:40:04.958Z,22.23
2017-10-16T03:41:07.469Z,24.37
2017-10-16T03:42:11.235Z,24.83
2017-10-16T03:43:14.527Z,24.50
2017-10-16T03:44:18.088Z,24.55
2017-10-16T03:45:20.589Z,24.52
2017-10-16T03:46:23.480Z,23.58
2017-10-16T03:47:26.008Z,24.23
2017-10-16T03:48:28.897Z,22.58
2017-10-16T03:49:32.148Z,22.65
2017-10-16T03:50:34.701Z,24.80
2017-10-16T03:51:37.206Z,24.08
2017-10-16T03:52:44.081Z,24.45
2017-10-16T03:53:47.381Z,25.05
2017-10-16T03:54:50.018Z,24.77
2017-10-16T03:55:52.501Z,23.20
2017-10-16T03:56:55.979Z,24.92
2017-10-16T03:57:58.504Z,26.05
2017-10-16T03:59:01.303Z,27.70
2017-10-16T04:00:03.823Z,28.48
2017-10-16T04:01:06.660Z,27.42
2017-10-16T04:02:09.980Z,27.83
2017-10-16T04:03:12.615Z,26.55
2017-10-16T04:04:15.897Z,28.23
2017-10-16T04:05:19.498Z,26.70
2017-10-16T04:06:22.898Z,27.80
2017-10-16T04:07:26.345Z,23.80
2017-10-16T04:08:28.961Z,24.27
2017-10-16T04:09:32.581Z,25.55
2017-10-16T04:10:36.007Z,23.95
2017-10-16T04:11:39.653Z,22.65
2017-10-16T04:12:42.143Z,23.05
2017-10-16T04:13:45.791Z,24.70
2017-10-16T04:14:52.453Z,25.35
2017-10-16T04:15:56.005Z,22.55
2017-10-16T04:16:58.514Z,21.20
2017-10-16T04:18:02.262Z,22.98
2017-10-16T04:19:04.870Z,22.50
2017-10-16T04:20:08.520Z,21.67
2017-10-16T04:21:11.001Z,22.13
2017-10-16T04:22:16.013Z,23.75
2017-10-16T04:23:18.620Z,23.30
2017-10-16T04:24:22.308Z,23.35
2017-10-16T04:25:25.559Z,24.42
2017-10-16T04:26:28.882Z,24.70
2017-10-16T04:27:31.930Z,24.87
2017-10-16T04:28:35.204Z,26.50
2017-10-16T04:29:39.965Z,25.27
2017-10-16T04:30:42.460Z,25.33
2017-10-16T04:31:45.904Z,25.10
2017-10-16T04:32:49.230Z,24.20
2017-10-16T04:33:51.968Z,26.35
2017-10-16T04:34:54.495Z,26.23
2017-10-16T04:35:57.165Z,24.40
2017-10-16T04:36:59.648Z,25.02
2017-10-16T04:38:03.127Z,24.85
2017-10-16T04:39:06.472Z,25.65
2017-10-16T04:40:09.161Z,24.30
2017-10-16T04:41:11.654Z,22.42
2017-10-16T04:42:14.425Z,24.23
2017-10-16T04:43:17.699Z,24.58
2017-10-16T04:44:20.376Z,24.25
2017-10-16T04:45:22.902Z,26.00
2017-10-16T04:46:26.058Z,24.85
2017-10-16T04:47:28.539Z,24.50
2017-10-16T04:48:31.391Z,27.25
2017-10-16T04:49:33.933Z,27.65
2017-10-16T04:50:39.499Z,27.48
2017-10-16T04:51:42.078Z,28.65
2017-10-16T04:52:46.617Z,25.45
2017-10-16T04:53:49.115Z,27.33
2017-10-16T04:54:53.982Z,25.50
2017-10-16T04:55:56.514Z,24.95
2017-10-16T04:57:01.007Z,27.13
2017-10-16T04:58:03.518Z,25.15
2017-10-16T04:59:06.319Z,27.10
2017-10-16T05:00:08.853Z,27.83
2017-10-16T05:01:11.686Z,28.90
2017-10-16T05:02:14.269Z,26.08
2017-10-16T05:03:17.902Z,24.02
2017-10-16T05:04:20.574Z,26.75
2017-10-16T05:05:23.188Z,24.05
2017-10-16T05:06:25.738Z,24.70
2017-10-16T05:07:29.447Z,26.23
2017-10-16T05:08:31.964Z,26.20
2017-10-16T05:09:34.480Z,27.15
2017-10-16T05:10:36.970Z,23.23
2017-10-16T05:11:40.708Z,27.00
2017-10-16T05:12:43.230Z,24.25
2017-10-16T05:13:45.780Z,24.50
2017-10-16T05:14:48.283Z,24.15
2017-10-16T05:15:50.865Z,24.90
2017-10-16T05:16:53.429Z,23.90
2017-10-16T05:17:56.154Z,26.02
2017-10-16T05:18:58.628Z,24.73
2017-10-16T05:20:03.009Z,23.50
2017-10-16T05:21:05.538Z,24.92
2017-10-16T05:22:08.111Z,23.60
2017-10-16T05:23:11.180Z,23.15
2017-10-16T05:24:13.690Z,23.65
2017-10-16T05:25:16.202Z,23.20
2017-10-16T05:26:19.647Z,23.95
2017-10-16T05:27:22.176Z,24.55
2017-10-16T05:28:24.719Z,23.58
2017-10-16T05:29:28.141Z,22.48
2017-10-16T05:30:30.996Z,23.15
2017-10-16T05:31:33.502Z,20.62
2017-10-16T05:32:36.033Z,21.95
2017-10-16T05:33:38.597Z,21.77
2017-10-16T05:34:41.470Z,20.90
2017-10-16T05:35:44.138Z,23.50
2017-10-16T05:36:46.641Z,20.35
2017-10-16T05:37:49.758Z,22.10
2017-10-16T05:38:54.173Z,22.13
2017-10-16T05:39:57.438Z,21.98
2017-10-16T05:41:00.081Z,21.50
2017-10-16T05:42:02.566Z,19.60
2017-10-16T05:43:05.136Z,22.17
2017-10-16T05:44:07.661Z,19.98
2017-10-16T05:45:13.447Z,21.42
2017-10-16T05:46:15.978Z,20.85
2017-10-16T05:47:18.629Z,22.27
2017-10-16T05:48:21.126Z,22.45
2017-10-16T05:49:23.610Z,19.62
2017-10-16T05:50:26.149Z,20.85
2017-10-16T05:51:28.635Z,20.02
2017-10-16T05:52:31.781Z,19.40
2017-10-16T05:53:34.392Z,20.73
2017-10-16T05:54:36.903Z,19.65
2017-10-16T05:55:39.643Z,20.00
2017-10-16T05:56:43.447Z,20.00
2017-10-16T05:57:46.163Z,20.55
2017-10-16T05:58:48.653Z,19.30
2017-10-16T05:59:51.227Z,19.75
2017-10-16T06:00:53.935Z,17.90
2017-10-16T06:01:56.604Z,20.05
2017-10-16T06:02:59.112Z,19.50
2017-10-16T06:04:01.643Z,17.98
2017-10-16T06:05:04.155Z,18.73
2017-10-16T06:06:07.690Z,18.75
2017-10-16T06:07:10.185Z,17.50
2017-10-16T06:08:12.959Z,18.02
2017-10-16T06:09:15.530Z,19.42
2017-10-16T06:10:20.227Z,19.23
2017-10-16T06:11:22.739Z,21.55
2017-10-16T06:12:25.814Z,20.10
2017-10-16T06:13:34.599Z,17.98
2017-10-16T06:14:38.142Z,19.20
2017-10-16T06:15:41.676Z,18.17
2017-10-16T06:16:44.413Z,19.45
2017-10-16T06:17:46.944Z,19.08
2017-10-16T06:18:49.434Z,18.65
2017-10-16T06:19:51.914Z,20.27
2017-10-16T06:20:55.599Z,20.12
2017-10-16T06:21:58.100Z,17.25
2017-10-16T06:23:00.747Z,19.23
2017-10-16T06:24:04.038Z,18.45
2017-10-16T06:25:07.303Z,19.25
2017-10-16T06:26:11.000Z,18.92
2017-10-16T06:27:13.601Z,18.73
2017-10-16T06:28:16.242Z,20.10
2017-10-16T06:29:19.865Z,17.20
2017-10-16T06:30:22.506Z,17.50
2017-10-16T06:31:26.151Z,17.83
2017-10-16T06:32:28.776Z,18.55
2017-10-16T06:33:32.083Z,18.42
2017-10-16T06:34:34.853Z,18.08
2017-10-16T06:35:37.409Z,17.73
2017-10-16T06:36:48.196Z,15.45
2017-10-16T06:37:50.918Z,17.55
2017-10-16T06:38:53.532Z,15.98
2017-10-16T06:39:56.210Z,15.48
2017-10-16T06:40:58.736Z,17.33
2017-10-16T06:42:02.013Z,14.90
2017-10-16T06:43:04.808Z,15.93
2017-10-16T06:44:08.161Z,15.27
2017-10-16T06:45:11.018Z,15.40
2017-10-16T06:46:13.980Z,15.75
2017-10-16T06:47:16.661Z,16.27
2017-10-16T06:48:19.171Z,14.30
2017-10-16T06:49:22.645Z,14.63
2017-10-16T06:50:29.519Z,15.43
2017-10-16T06:51:32.343Z,15.77
2017-10-16T06:52:35.742Z,15.15
2017-10-16T06:53:38.516Z,16.48
2017-10-16T06:54:41.072Z,14.68
2017-10-16T06:55:43.791Z,14.87
2017-10-16T06:56:46.302Z,14.52
2017-10-16T06:57:50.696Z,13.98
2017-10-16T06:58:54.009Z,13.27
2017-10-16T06:59:56.635Z,15.07
2017-10-16T07:00:59.172Z,13.57
2017-10-16T07:02:01.919Z,13.65
2017-10-16T07:03:04.486Z,13.90
2017-10-16T07:04:07.313Z,14.45
2017-10-16T07:05:09.800Z,14.90
2017-10-16T07:06:13.245Z,14.32
2017-10-16T07:07:15.772Z,12.98
2017-10-16T07:08:20.496Z,15.32
2017-10-16T07:09:46.189Z,13.95
2017-10-16T07:10:48.708Z,13.57
2017-10-16T07:11:51.496Z,14.15
2017-10-16T07:12:54.026Z,13.15
2017-10-16T07:13:57.446Z,12.10
2017-10-16T07:15:00.521Z,13.68
2017-10-16T07:16:03.089Z,13.43
2017-10-16T07:17:07.597Z,13.75
2017-10-16T07:18:13.092Z,11.38
2017-10-16T07:19:15.607Z,12.90
2017-10-16T07:20:18.274Z,12.85
2017-10-16T07:21:20.774Z,13.07
2017-10-16T07:22:25.371Z,12.50
2017-10-16T07:23:27.973Z,13.27
2017-10-16T07:24:30.765Z,12.52
2017-10-16T07:25:33.327Z,12.68
2017-10-16T07:26:40.595Z,12.52
2017-10-16T07:27:43.114Z,12.60
2017-10-16T07:28:45.929Z,12.30
2017-10-16T07:29:48.509Z,12.55
2017-10-16T07:30:51.898Z,12.10
2017-10-16T07:31:54.431Z,12.10
2017-10-16T07:32:57.153Z,13.07
2017-10-16T07:33:59.705Z,12.35
2017-10-16T07:35:03.160Z,11.90
2017-10-16T07:36:07.100Z,11.65
2017-10-16T07:37:09.789Z,12.65
2017-10-16T07:38:13.169Z,11.18
2017-10-16T07:39:16.019Z,12.48
2017-10-16T07:40:18.532Z,11.50
2017-10-16T07:41:22.249Z,12.30
2017-10-16T07:42:24.777Z,12.10
2017-10-16T07:43:33.121Z,13.10
2017-10-16T07:44:36.447Z,13.73
2017-10-16T07:45:39.049Z,12.83
2017-10-16T07:46:41.563Z,13.40
2017-10-16T07:47:45.219Z,12.33
2017-10-16T07:48:47.760Z,12.50
2017-10-16T07:49:50.280Z,13.40
2017-10-16T07:50:53.591Z,13.20
2017-10-16T07:51:56.193Z,13.00
2017-10-16T07:52:58.769Z,13.70
2017-10-16T07:54:01.524Z,13.87
2017-10-16T07:55:04.050Z,13.87
2017-10-16T07:56:07.547Z,12.90
2017-10-16T07:57:10.043Z,13.90
2017-10-16T07:58:17.596Z,11.50
2017-10-16T07:59:20.108Z,12.83
2017-10-16T08:00:22.825Z,13.73
2017-10-16T08:01:29.940Z,12.33
2017-10-16T08:02:32.513Z,12.40
2017-10-16T08:03:35.082Z,12.33
2017-10-16T08:04:41.844Z,12.07
2017-10-16T08:05:45.143Z,12.90
2017-10-16T08:06:47.774Z,11.63
2017-10-16T08:07:50.310Z,12.10
2017-10-16T08:08:53.200Z,11.97
2017-10-16T08:09:55.725Z,11.77
2017-10-16T08:10:59.404Z,10.97
2017-10-16T08:12:02.710Z,10.77
2017-10-16T08:13:06.163Z,12.73
2017-10-16T08:14:09.437Z,11.20
2017-10-16T08:15:12.316Z,13.03
2017-10-16T08:16:15.622Z,12.53
2017-10-16T08:17:19.341Z,12.10
2017-10-16T08:18:22.008Z,11.63
2017-10-16T08:19:24.737Z,12.07
2017-10-16T08:20:27.256Z,12.73
2017-10-16T08:21:30.122Z,12.20
2017-10-16T08:22:32.892Z,11.00
2017-10-16T08:23:35.640Z,12.30
2017-10-16T08:24:38.952Z,12.13
2017-10-16T08:25:43.520Z,12.47
2017-10-16T08:26:46.062Z,12.20
2017-10-16T08:27:48.746Z,12.13
2017-10-16T08:28:51.311Z,11.67
2017-10-16T08:29:53.803Z,11.50
2017-10-16T08:30:57.099Z,12.70
2017-10-16T08:32:00.711Z,10.67
2017-10-16T08:33:04.092Z,12.70
2017-10-16T08:34:07.992Z,12.97
2017-10-16T08:35:10.497Z,11.00
2017-10-16T08:36:13.020Z,12.20
2017-10-16T08:37:15.592Z,11.10
2017-10-16T08:38:18.310Z,10.50
2017-10-16T08:39:20.833Z,11.60
2017-10-16T08:40:23.687Z,11.20
2017-10-16T08:41:26.199Z,12.80
2017-10-16T08:42:29.244Z,12.07
2017-10-16T08:43:32.132Z,12.63
2017-10-16T08:44:40.786Z,12.27
2017-10-16T08:45:43.332Z,11.30
2017-10-16T08:46:46.131Z,11.93
2017-10-16T08:47:49.415Z,11.70
2017-10-16T08:48:53.314Z,12.00
2017-10-16T08:49:56.607Z,11.87
2017-10-16T08:51:01.142Z,12.40
2017-10-16T08:52:04.417Z,11.77
2017-10-16T08:53:06.978Z,10.57
2017-10-16T08:54:09.521Z,11.37
2017-10-16T08:55:21.070Z,11.57
2017-10-16T08:56:23.606Z,11.83
2017-10-16T08:57:27.322Z,10.73
2017-10-16T08:58:29.827Z,10.60
2017-10-16T08:59:33.563Z,10.43
2017-10-16T09:00:36.127Z,10.13
2017-10-16T09:01:38.749Z,10.93
2017-10-16T09:02:41.286Z,10.27
2017-10-16T09:03:43.791Z,9.70
2017-10-16T09:04:47.056Z,10.00
2017-10-16T09:05:52.938Z,11.03
2017-10-16T09:06:56.113Z,9.93
2017-10-16T09:07:59.380Z,9.80
2017-10-16T09:09:01.986Z,11.73
2017-10-16T09:10:04.513Z,10.10
2017-10-16T09:11:07.192Z,11.10
2017-10-16T09:12:10.672Z,9.97
2017-10-16T09:13:13.188Z,9.20
2017-10-16T09:14:15.806Z,10.33
2017-10-16T09:15:18.295Z,10.87
2017-10-16T09:16:21.247Z,9.10
2017-10-16T09:17:23.797Z,10.60
2017-10-16T09:18:26.481Z,10.70
2017-10-16T09:19:29.002Z,11.47
2017-10-16T09:20:33.013Z,9.93
2017-10-16T09:21:35.762Z,11.17
2017-10-16T09:22:38.326Z,9.60
2017-10-16T09:23:41.101Z,10.10
2017-10-16T09:24:43.746Z,10.90
2017-10-16T09:25:47.031Z,10.10
2017-10-16T09:26:50.520Z,9.97
2017-10-16T09:27:53.866Z,9.70
2017-10-16T09:28:56.529Z,9.23
2017-10-16T09:29:59.058Z,10.20
2017-10-16T09:31:03.450Z,10.20
2017-10-16T09:32:06.724Z,10.80
2017-10-16T09:33:10.271Z,11.47
2017-10-16T09:34:12.782Z,11.07
2017-10-16T09:35:16.289Z,11.30
2017-10-16T09:36:18.776Z,11.10
2017-10-16T09:37:21.521Z,9.70
2017-10-16T09:38:24.060Z,10.90
2017-10-16T09:39:26.585Z,9.90
2017-10-16T09:40:29.080Z,10.63
2017-10-16T09:41:31.583Z,9.80
2017-10-16T09:42:34.683Z,11.17
2017-10-16T09:43:37.554Z,10.10
2017-10-16T09:44:40.058Z,9.80
2017-10-16T09:45:42.562Z,10.37
2017-10-16T09:46:45.873Z,11.10
2017-10-16T09:47:48.771Z,9.90
2017-10-16T09:48:51.279Z,10.40
2017-10-16T09:49:54.762Z,9.80
2017-10-16T09:50:58.093Z,9.73
2017-10-16T09:52:00.827Z,9.40
2017-10-16T09:53:03.345Z,10.70
2017-10-16T09:54:06.159Z,9.87
2017-10-16T09:55:09.438Z,9.67
2017-10-16T09:56:12.110Z,9.00
2017-10-16T09:57:14.631Z,9.73
2017-10-16T09:58:17.480Z,9.77
2017-10-16T09:59:20.062Z,8.97
2017-10-16T10:00:22.695Z,9.30
2017-10-16T10:01:25.975Z,9.80
2017-10-16T10:02:29.402Z,10.30
2017-10-16T10:03:31.897Z,10.50
2017-10-16T10:04:34.916Z,9.77
2017-10-16T10:05:37.489Z,9.10
2017-10-16T10:06:41.259Z,9.60
2017-10-16T10:07:44.572Z,9.30
2017-10-16T10:08:50.856Z,9.23
2017-10-16T10:09:53.390Z,9.03
2017-10-16T10:10:57.112Z,9.33
2017-10-16T10:12:00.209Z,9.63
2017-10-16T10:13:02.706Z,8.93
2017-10-16T10:14:05.966Z,9.67
2017-10-16T10:15:08.919Z,8.93
2017-10-16T10:16:11.469Z,9.40
2017-10-16T10:17:14.130Z,9.43
2017-10-16T10:18:16.631Z,8.60
2017-10-16T10:19:19.347Z,10.10
2017-10-16T10:20:22.651Z,10.70
2017-10-16T10:21:26.262Z,9.33
2017-10-16T10:22:28.743Z,8.20
2017-10-16T10:23:31.240Z,8.20
2017-10-16T10:36:10.372Z,8.20
2017-10-16T10:37:13.711Z,9.20
2017-10-16T10:38:17.302Z,9.17
2017-10-16T10:39:19.796Z,8.20
2017-10-16T10:40:23.333Z,8.33
2017-10-16T10:41:25.839Z,9.30
2017-10-16T10:42:29.218Z,9.23
2017-10-16T10:43:31.705Z,9.20
2017-10-16T10:44:36.286Z,8.97
2017-10-16T10:45:38.772Z,8.43
2017-10-16T10:46:42.262Z,8.50
2017-10-16T10:47:45.572Z,9.47
2017-10-16T10:48:48.291Z,8.63
2017-10-16T10:50:15.071Z,8.43
2017-10-16T10:51:17.580Z,9.83
2017-10-16T10:52:22.430Z,8.80
2017-10-16T10:53:25.712Z,9.00
2017-10-16T10:54:28.389Z,7.90
2017-10-16T10:55:31.704Z,7.63
2017-10-16T10:56:34.350Z,9.17
2017-10-16T10:57:37.672Z,8.70
2017-10-16T10:58:40.274Z,8.97
2017-10-16T10:59:42.815Z,7.70
2017-10-16T11:00:46.588Z,9.33
2017-10-16T11:01:49.163Z,8.00
2017-10-16T11:02:51.867Z,8.50
2017-10-16T11:03:54.374Z,8.70
2017-10-16T11:04:58.155Z,8.27
2017-10-16T11:06:01.441Z,8.97
2017-10-16T11:07:05.068Z,7.67
2017-10-16T11:08:07.633Z,8.90
2017-10-16T11:09:10.378Z,7.80
2017-10-16T11:10:13.688Z,7.67
2017-10-16T11:11:16.296Z,7.57
2017-10-16T11:12:18.781Z,8.00
2017-10-16T11:13:22.293Z,8.63
2017-10-16T11:14:25.702Z,7.83
2017-10-16T11:15:28.526Z,7.57
2017-10-16T11:16:31.154Z,8.70
2017-10-16T11:17:33.915Z,7.77
2017-10-16T11:18:36.554Z,7.57
2017-10-16T11:19:40.175Z,7.27
2017-10-16T11:20:42.835Z,7.70
2017-10-16T11:21:45.459Z,8.13
2017-10-16T11:22:48.050Z,7.67
2017-10-16T11:23:51.339Z,8.33
2017-10-16T11:24:53.924Z,7.60
2017-10-16T11:25:57.263Z,9.20
2017-10-16T11:26:59.726Z,7.80
2017-10-16T11:28:02.449Z,8.40
2017-10-16T11:29:04.952Z,7.90
2017-10-16T11:30:07.789Z,8.60
2017-10-16T11:31:10.554Z,7.70
2017-10-16T11:32:13.395Z,7.50
2017-10-16T11:33:16.670Z,7.47
2017-10-16T11:34:19.423Z,8.20
2017-10-16T11:35:21.984Z,8.67
2017-10-16T11:36:24.720Z,6.70
2017-10-16T11:37:28.007Z,7.53
2017-10-16T11:38:30.671Z,7.73
2017-10-16T11:39:33.250Z,7.67
2017-10-16T11:40:35.778Z,7.50
2017-10-16T11:41:39.092Z,7.50
2017-10-16T11:42:41.925Z,7.00
2017-10-16T11:43:45.215Z,6.67
2017-10-16T11:44:50.092Z,8.53
2017-10-16T11:45:52.738Z,7.33
2017-10-16T11:46:56.457Z,7.63
2017-10-16T11:47:59.045Z,6.70
2017-10-16T11:49:01.664Z,8.90
2017-10-16T11:50:04.283Z,6.20
2017-10-16T11:51:07.011Z,6.67
2017-10-16T11:52:09.561Z,6.50
2017-10-16T11:53:12.824Z,7.47
2017-10-16T11:54:16.216Z,6.30
2017-10-16T11:55:19.802Z,8.00
2017-10-16T11:56:23.180Z,6.80
2017-10-16T11:57:25.747Z,6.67
2017-10-16T11:58:29.524Z,6.57
2017-10-16T11:59:32.215Z,7.83
2017-10-16T12:00:35.594Z,6.60
2017-10-16T12:01:39.198Z,6.50
2017-10-16T12:02:42.458Z,7.17
2017-10-16T12:03:46.085Z,7.40
2017-10-16T12:04:49.357Z,6.30
2017-10-16T12:05:52.673Z,7.03
2017-10-16T12:06:55.238Z,8.43
2017-10-16T12:07:57.968Z,7.10
2017-10-16T12:09:00.513Z,6.20
2017-10-16T12:10:03.327Z,6.70
2017-10-16T12:11:06.583Z,5.67
2017-10-16T12:12:09.251Z,6.73
2017-10-16T12:13:11.759Z,6.43
2017-10-16T12:14:14.966Z,6.17
2017-10-16T12:15:17.517Z,6.30
2017-10-16T12:16:22.653Z,6.20
2017-10-16T12:17:25.903Z,6.30
2017-10-16T12:18:29.216Z,6.97
2017-10-16T12:19:31.699Z,6.67
2017-10-16T12:20:34.196Z,5.60
2017-10-16T12:21:37.452Z,6.70
2017-10-16T12:22:41.223Z,6.20
2017-10-16T12:23:43.783Z,6.37
2017-10-16T12:24:47.172Z,6.00
2017-10-16T12:25:49.769Z,6.07
2017-10-16T12:26:54.403Z,6.03
2017-10-16T12:27:56.937Z,7.40
2017-10-16T12:28:59.690Z,6.10
2017-10-16T12:30:02.399Z,6.03
2017-10-16T12:31:04.935Z,6.40
2017-10-16T12:32:07.439Z,5.80
2017-10-16T12:33:09.955Z,6.73
2017-10-16T12:34:12.513Z,6.33
2017-10-16T12:35:15.640Z,6.93
2017-10-16T12:36:18.142Z,6.20
2017-10-16T12:37:21.872Z,5.67
2017-10-16T12:38:24.704Z,5.87
2017-10-16T12:39:27.977Z,6.03
2017-10-16T12:40:30.496Z,5.80
2017-10-16T12:41:33.002Z,5.57
2017-10-16T12:42:35.524Z,6.13
2017-10-16T12:43:38.031Z,5.43
2017-10-16T12:44:40.640Z,5.60
2017-10-16T12:45:43.140Z,5.67
2017-10-16T12:46:45.944Z,5.60
2017-10-16T12:47:49.272Z,6.60
2017-10-16T12:48:51.911Z,5.90
2017-10-16T12:49:55.204Z,5.37
2017-10-16T12:50:59.224Z,6.00
2017-10-16T12:52:01.792Z,5.20
2017-10-16T12:53:05.435Z,5.40
2017-10-16T12:54:07.942Z,6.07
2017-10-16T12:55:15.035Z,5.57
2017-10-16T12:56:17.522Z,5.43
2017-10-16T12:57:20.345Z,5.90
2017-10-16T12:58:23.643Z,6.10
2017-10-16T12:59:26.279Z,6.70
2017-10-16T13:00:28.761Z,5.60
2017-10-16T13:01:32.268Z,5.40
2017-10-16T13:02:34.794Z,5.60
2017-10-16T13:03:37.459Z,5.30
2017-10-16T13:04:40.048Z,5.17
2017-10-16T13:05:43.534Z,6.00
2017-10-16T13:06:49.701Z,5.80
2017-10-16T13:07:52.543Z,5.00
2017-10-16T13:08:55.765Z,5.50
2017-10-16T13:09:58.486Z,5.27
2017-10-16T13:11:01.129Z,5.10
2017-10-16T13:12:03.807Z,5.57
2017-10-16T13:13:06.350Z,5.40
2017-10-16T13:14:10.836Z,5.67
2017-10-16T13:15:13.402Z,6.00
2017-10-16T13:16:16.964Z,5.60
2017-10-16T13:17:19.471Z,5.43
2017-10-16T13:18:22.306Z,5.70
2017-10-16T13:19:25.632Z,5.87
2017-10-16T13:20:28.234Z,6.10
2017-10-16T13:21:34.367Z,5.40
2017-10-16T13:22:40.044Z,5.27
2017-10-16T13:23:42.553Z,5.30
2017-10-16T13:24:45.480Z,5.47
2017-10-16T13:25:49.840Z,7.17
2017-10-16T13:26:52.610Z,5.17
2017-10-16T13:27:55.163Z,5.70
2017-10-16T13:28:57.838Z,5.33
2017-10-16T13:30:01.236Z,5.50
2017-10-16T13:31:04.004Z,6.00
2017-10-16T13:32:06.673Z,6.83
2017-10-16T13:33:09.180Z,5.50
2017-10-16T13:34:11.815Z,5.30
2017-10-16T13:35:14.625Z,5.90
2017-10-16T13:36:17.144Z,5.23
2017-10-16T13:37:19.872Z,5.00
2017-10-16T13:38:22.746Z,5.07
2017-10-16T13:39:25.499Z,5.03
2017-10-16T13:40:28.767Z,4.97
2017-10-16T13:41:31.464Z,5.20
2017-10-16T13:42:33.955Z,5.37
2017-10-16T13:43:39.324Z,5.53
2017-10-16T13:44:42.698Z,5.60
2017-10-16T13:45:45.249Z,5.90
2017-10-16T13:46:48.876Z,5.43
2017-10-16T13:47:51.485Z,6.10
2017-10-16T13:48:53.969Z,5.23
2017-10-16T13:49:58.379Z,4.90
2017-10-16T13:51:01.705Z,6.30
2017-10-16T13:52:05.625Z,6.07
2017-10-16T13:53:12.141Z,7.10